createdAt,value
2018-02-22T00:00:01.264Z,35.65
2018-02-22T00:02:28.949Z,29.20
2018-02-22T00:04:56.627Z,37.33
2018-02-22T00:07:24.307Z,31.20
2018-02-22T00:09:51.987Z,26.30
2018-02-22T00:12:19.680Z,31.00
2018-02-22T00:14:47.370Z,39.78
2018-02-22T00:17:15.056Z,38.25
2018-02-22T00:19:42.977Z,30.45
2018-02-22T00:22:18.338Z,36.15
2018-02-22T00:24:46.381Z,32.70
2018-02-22T00:27:14.097Z,29.73
2018-02-22T00:29:41.742Z,36.08
2018-02-22T00:32:09.436Z,34.20
2018-02-22T00:34:37.072Z,39.88
2018-02-22T00:37:04.787Z,34.85
2018-02-22T00:39:32.459Z,33.13
2018-02-22T00:42:00.161Z,32.17
2018-02-22T00:44:28.205Z,30.08
2018-02-22T00:46:55.895Z,33.80
2018-02-22T00:49:23.789Z,31.40
2018-02-22T00:51:51.806Z,36.65
2018-02-22T00:54:19.542Z,31.35
2018-02-22T00:56:47.391Z,39.53
2018-02-22T00:59:15.017Z,26.62
2018-02-22T01:01:42.703Z,40.17
2018-02-22T01:04:10.500Z,32.35
2018-02-22T01:06:38.220Z,30.27
2018-02-22T01:09:05.900Z,32.25
2018-02-22T01:11:34.115Z,29.80
2018-02-22T01:14:01.896Z,30.20
2018-02-22T01:16:29.513Z,28.48
2018-02-22T01:18:57.284Z,32.70
2018-02-22T01:21:24.946Z,27.15
2018-02-22T01:23:52.793Z,36.90
2018-02-22T01:26:20.405Z,44.42
2018-02-22T01:28:48.053Z,34.90
2018-02-22T01:31:15.869Z,33.22
2018-02-22T01:33:43.634Z,37.78
2018-02-22T01:36:11.278Z,34.50
2018-02-22T01:38:38.925Z,31.87
2018-02-22T01:41:06.627Z,34.35
2018-02-22T01:43:34.285Z,33.70
2018-02-22T01:46:01.988Z,32.78
2018-02-22T01:48:29.670Z,37.63
2018-02-22T01:50:57.410Z,35.42
2018-02-22T01:53:25.113Z,31.05
2018-02-22T01:55:52.754Z,28.85
2018-02-22T01:58:20.388Z,39.88
2018-02-22T02:00:48.017Z,29.25
2018-02-22T02:03:15.664Z,32.75
2018-02-22T02:05:43.306Z,33.53
2018-02-22T02:08:10.952Z,30.60
2018-02-22T02:10:38.949Z,30.52
2018-02-22T02:13:07.126Z,34.33
2018-02-22T02:15:34.759Z,32.25
2018-02-22T02:18:02.357Z,38.25
2018-02-22T02:20:30.108Z,35.80
2018-02-22T02:22:57.770Z,40.15
2018-02-22T02:25:25.442Z,39.80
2018-02-22T02:30:33.616Z,34.67
2018-02-22T02:33:01.239Z,35.38
2018-02-22T02:35:29.260Z,33.00
2018-02-22T02:37:57.130Z,34.67
2018-02-22T02:40:24.773Z,34.03
2018-02-22T02:42:52.463Z,40.88
2018-02-22T02:45:20.093Z,34.20
2018-02-22T02:47:47.711Z,35.70
2018-02-22T02:50:15.331Z,34.45
2018-02-22T02:52:43.164Z,34.55
2018-02-22T02:55:10.906Z,36.03
2018-02-22T02:57:38.527Z,41.28
2018-02-22T03:00:06.135Z,40.28
2018-02-22T03:02:33.781Z,35.42
2018-02-22T03:05:01.768Z,38.20
2018-02-22T03:07:29.419Z,32.97
2018-02-22T03:09:57.024Z,32.72
2018-02-22T03:12:24.656Z,32.60
2018-02-22T03:14:52.312Z,36.60
2018-02-22T03:17:19.916Z,35.20
2018-02-22T03:19:47.534Z,36.67
2018-02-22T03:22:15.189Z,35.17
2018-02-22T03:24:42.856Z,35.33
2018-02-22T03:27:10.523Z,33.28
2018-02-22T03:29:38.158Z,31.10
2018-02-22T03:32:05.841Z,30.92
2018-02-22T03:34:33.464Z,35.63
2018-02-22T03:37:01.097Z,31.90
2018-02-22T03:39:28.726Z,34.47
2018-02-22T03:41:56.722Z,33.00
2018-02-22T03:44:24.308Z,32.88
2018-02-22T03:46:52.169Z,31.52
2018-02-22T03:49:20.021Z,35.75
2018-02-22T03:51:47.817Z,43.75
2018-02-22T03:54:15.638Z,37.78
2018-02-22T03:56:43.257Z,35.22
2018-02-22T03:59:11.174Z,30.15
2018-02-22T04:01:38.966Z,34.63
2018-02-22T04:04:06.636Z,38.97
2018-02-22T04:06:34.288Z,39.45
2018-02-22T04:09:02.266Z,33.58
2018-02-22T04:11:29.953Z,36.80
2018-02-22T04:13:57.795Z,36.50
2018-02-22T04:16:25.542Z,35.90
2018-02-22T04:18:53.183Z,37.08
2018-02-22T04:21:20.991Z,36.75
2018-02-22T04:23:48.655Z,37.42
2018-02-22T04:26:16.427Z,38.90
2018-02-22T04:28:44.337Z,41.83
2018-02-22T04:31:11.948Z,36.05
2018-02-22T04:33:39.623Z,37.45
2018-02-22T04:36:07.265Z,38.03
2018-02-22T04:38:34.951Z,39.83
2018-02-22T04:41:02.574Z,37.22
2018-02-22T04:43:30.202Z,36.85
2018-02-22T04:45:57.787Z,37.17
2018-02-22T04:48:25.438Z,37.90
2018-02-22T04:50:53.079Z,40.83
2018-02-22T04:53:20.670Z,40.65
2018-02-22T04:55:48.385Z,41.60
2018-02-22T04:58:15.967Z,46.67
2018-02-22T05:00:44.453Z,49.42
2018-02-22T05:03:12.067Z,38.15
2018-02-22T05:05:39.672Z,42.95
2018-02-22T05:08:07.583Z,50.75
2018-02-22T05:10:35.277Z,36.45
2018-02-22T05:13:03.063Z,41.72
2018-02-22T05:15:30.710Z,41.67
2018-02-22T05:17:58.396Z,44.40
2018-02-22T05:20:25.996Z,45.67
2018-02-22T05:22:53.634Z,39.05
2018-02-22T05:25:21.280Z,41.83
2018-02-22T05:27:48.950Z,46.00
2018-02-22T05:30:16.570Z,42.08
2018-02-22T05:32:44.247Z,49.72
2018-02-22T05:35:11.842Z,42.15
2018-02-22T05:37:39.432Z,43.42
2018-02-22T05:40:07.065Z,42.90
2018-02-22T05:42:34.727Z,45.00
2018-02-22T05:45:02.366Z,47.20
2018-02-22T05:47:30.046Z,46.05
2018-02-22T05:49:57.945Z,54.67
2018-02-22T05:52:25.685Z,43.72
2018-02-22T05:54:53.607Z,49.35
2018-02-22T05:57:21.447Z,41.85
2018-02-22T05:59:49.074Z,39.78
2018-02-22T06:02:16.689Z,44.05
2018-02-22T06:04:44.457Z,43.38
2018-02-22T06:07:12.111Z,50.17
2018-02-22T06:09:39.801Z,45.85
2018-02-22T06:12:07.459Z,43.70
2018-02-22T06:14:35.184Z,41.22
2018-02-22T06:17:02.799Z,50.72
2018-02-22T06:19:30.481Z,44.33
2018-02-22T06:21:58.207Z,58.38
2018-02-22T06:24:25.960Z,45.30
2018-02-22T06:26:54.989Z,46.40
2018-02-22T06:29:22.664Z,41.67
2018-02-22T06:31:50.332Z,51.55
2018-02-22T06:34:17.965Z,39.90
2018-02-22T06:36:45.701Z,46.85
2018-02-22T06:39:13.383Z,44.08
2018-02-22T06:41:41.012Z,46.33
2018-02-22T06:44:08.894Z,47.08
2018-02-22T06:46:36.569Z,43.92
2018-02-22T06:49:04.192Z,47.70
2018-02-22T06:51:32.220Z,42.17
2018-02-22T06:53:59.884Z,44.75
2018-02-22T06:56:27.549Z,63.13
2018-02-22T06:58:55.191Z,47.22
2018-02-22T07:01:22.953Z,50.92
2018-02-22T07:03:50.712Z,44.80
2018-02-22T07:06:18.374Z,45.00
2018-02-22T07:08:46.005Z,44.67
2018-02-22T07:11:13.658Z,48.13
2018-02-22T07:13:41.303Z,46.33
2018-02-22T07:16:09.025Z,41.80
2018-02-22T07:18:36.836Z,47.38
2018-02-22T07:21:04.449Z,51.50
2018-02-22T07:23:32.174Z,46.53
2018-02-22T07:25:59.922Z,51.20
2018-02-22T07:28:27.866Z,43.03
2018-02-22T07:30:55.594Z,43.70
2018-02-22T07:33:23.218Z,47.55
2018-02-22T07:35:50.838Z,46.50
2018-02-22T07:38:18.523Z,56.30
2018-02-22T07:40:46.219Z,51.28
2018-02-22T07:43:13.914Z,43.97
2018-02-22T07:45:41.672Z,45.20
2018-02-22T07:48:09.405Z,49.42
2018-02-22T07:50:37.130Z,53.10
2018-02-22T07:53:04.851Z,51.55
2018-02-22T07:55:32.614Z,48.15
2018-02-22T07:58:00.249Z,41.88
2018-02-22T08:00:27.940Z,45.63
2018-02-22T08:02:55.606Z,44.72
2018-02-22T08:05:23.303Z,45.22
2018-02-22T08:07:50.972Z,47.95
2018-02-22T08:10:18.939Z,52.95
2018-02-22T08:12:46.642Z,47.95
2018-02-22T08:15:14.299Z,44.47
2018-02-22T08:17:41.962Z,50.88
2018-02-22T08:20:09.681Z,47.92
2018-02-22T08:22:37.337Z,43.53
2018-02-22T08:25:05.062Z,44.33
2018-02-22T08:27:32.866Z,45.60
2018-02-22T08:30:00.559Z,40.90
2018-02-22T08:32:28.281Z,45.05
2018-02-22T08:34:56.017Z,42.90
2018-02-22T08:37:23.715Z,40.08
2018-02-22T08:39:51.384Z,41.75
2018-02-22T08:42:19.068Z,42.45
2018-02-22T08:44:46.781Z,43.60
2018-02-22T08:47:14.451Z,45.70
2018-02-22T08:49:42.156Z,41.67
2018-02-22T08:52:09.873Z,41.70
2018-02-22T08:54:37.563Z,35.30
2018-02-22T08:57:05.226Z,40.42
2018-02-22T08:59:32.946Z,34.80
2018-02-22T09:02:00.675Z,37.72
2018-02-22T09:04:28.308Z,36.88
2018-02-22T09:06:56.046Z,35.15
2018-02-22T09:09:24.172Z,37.95
2018-02-22T09:11:51.791Z,27.33
2018-02-22T09:14:19.482Z,40.05
2018-02-22T09:16:47.129Z,41.67
2018-02-22T09:19:14.782Z,40.03
2018-02-22T09:21:42.422Z,35.50
2018-02-22T09:24:10.343Z,39.22
2018-02-22T09:26:38.027Z,37.42
2018-02-22T09:29:05.672Z,38.08
2018-02-22T09:31:33.290Z,32.55
2018-02-22T09:34:01.019Z,36.63
2018-02-22T09:36:28.708Z,32.95
2018-02-22T09:38:56.429Z,33.75
2018-02-22T09:41:24.111Z,33.97
2018-02-22T09:43:51.773Z,33.38
2018-02-22T09:46:19.403Z,36.40
2018-02-22T09:48:52.806Z,31.33
2018-02-22T09:51:29.935Z,35.92
2018-02-22T09:54:01.293Z,38.50
2018-02-22T11:21:14.251Z,27.75
2018-02-22T11:23:41.937Z,23.10
2018-02-22T11:26:09.624Z,34.42
2018-02-22T11:28:37.324Z,31.30
2018-02-22T11:31:04.955Z,22.27
2018-02-22T11:33:32.964Z,21.27
2018-02-22T11:36:00.709Z,23.92
2018-02-22T11:38:28.425Z,25.30
2018-02-22T11:40:56.258Z,25.55
2018-02-22T11:43:24.047Z,28.40
2018-02-22T11:45:51.838Z,27.05
2018-02-22T11:48:20.063Z,27.25
2018-02-22T11:50:47.794Z,29.27
2018-02-22T11:53:15.511Z,27.70
2018-02-22T11:55:43.212Z,36.17
2018-02-22T11:58:10.928Z,32.38
2018-02-22T12:00:38.639Z,29.80
2018-02-22T12:03:06.861Z,26.85
2018-02-22T12:05:34.557Z,33.08
2018-02-22T12:08:02.267Z,29.55
2018-02-22T12:10:30.030Z,26.17
2018-02-22T12:12:57.732Z,23.08
2018-02-22T12:15:25.454Z,30.92
2018-02-22T12:17:53.172Z,26.50
2018-02-22T12:20:20.901Z,27.80
2018-02-22T12:22:48.598Z,30.08
2018-02-22T12:25:16.735Z,28.62
2018-02-22T12:27:44.562Z,25.55
2018-02-22T12:30:12.608Z,32.67
2018-02-22T12:32:40.296Z,28.30
2018-02-22T12:35:08.071Z,30.65
2018-02-22T12:37:35.848Z,24.92
2018-02-22T12:40:03.936Z,22.73
2018-02-22T12:42:31.667Z,23.00
2018-02-22T12:44:59.395Z,26.60
2018-02-22T12:47:27.147Z,26.37
2018-02-22T12:49:55.202Z,21.70
2018-02-22T12:52:22.898Z,24.30
2018-02-22T12:54:50.662Z,22.37
2018-02-22T12:57:18.390Z,24.75
2018-02-22T12:59:46.070Z,22.30
2018-02-22T13:02:14.856Z,23.92
2018-02-22T13:04:42.602Z,27.40
2018-02-22T13:07:10.280Z,23.27
2018-02-22T13:09:38.250Z,24.98
2018-02-22T13:12:06.166Z,25.45
2018-02-22T13:14:33.855Z,26.90
2018-02-22T13:17:01.958Z,27.45
2018-02-22T13:19:29.636Z,22.50
2018-02-22T13:21:57.306Z,25.48
2018-02-22T13:24:25.029Z,28.98
2018-02-22T13:26:53.018Z,27.35
2018-02-22T13:29:20.684Z,21.55
2018-02-22T13:31:48.497Z,27.33
2018-02-22T13:34:28.209Z,20.75
2018-02-22T13:36:56.354Z,20.65
2018-02-22T13:39:24.102Z,30.02
2018-02-22T13:41:51.887Z,18.92
2018-02-22T13:44:31.536Z,18.40
2018-02-22T13:46:59.300Z,21.55
2018-02-22T13:49:38.761Z,19.27
2018-02-22T13:52:06.477Z,24.90
2018-02-22T13:54:34.193Z,22.23
2018-02-22T13:57:16.707Z,20.80
2018-02-22T13:59:44.403Z,19.40
2018-02-22T14:02:23.530Z,22.87
2018-02-22T14:04:51.185Z,18.83
2018-02-22T14:07:19.208Z,21.08
2018-02-22T14:09:47.179Z,22.45
2018-02-22T14:12:14.829Z,21.63
2018-02-22T14:14:42.514Z,19.80
2018-02-22T14:17:10.163Z,18.52
2018-02-22T14:19:37.835Z,19.67
2018-02-22T14:22:05.641Z,17.73
2018-02-22T14:24:33.322Z,22.52
2018-02-22T14:27:00.938Z,24.10
2018-02-22T14:29:28.622Z,20.02
2018-02-22T14:31:56.286Z,20.97
2018-02-22T14:34:23.938Z,19.87
2018-02-22T14:36:51.638Z,19.35
2018-02-22T14:39:19.269Z,18.90
2018-02-22T14:41:46.960Z,18.40
2018-02-22T14:44:14.621Z,21.12
2018-02-22T14:46:42.344Z,16.33
2018-02-22T14:49:09.980Z,20.60
2018-02-22T14:51:37.608Z,22.60
2018-02-22T14:54:05.254Z,22.17
2018-02-22T14:56:32.881Z,17.40
2018-02-22T14:59:00.558Z,22.13
2018-02-22T15:01:28.194Z,17.43
2018-02-22T15:03:56.136Z,19.63
2018-02-22T15:06:23.816Z,17.80
2018-02-22T15:08:51.462Z,18.60
2018-02-22T15:11:19.197Z,22.90
2018-02-22T15:13:46.812Z,17.50
2018-02-22T15:16:14.420Z,14.87
2018-02-22T15:18:42.221Z,19.70
2018-02-22T15:21:09.921Z,19.27
2018-02-22T15:23:37.652Z,17.20
2018-02-22T15:26:05.327Z,16.90
2018-02-22T15:28:32.981Z,19.70
2018-02-22T15:31:00.650Z,18.67
2018-02-22T15:33:28.418Z,19.60
2018-02-22T15:35:56.069Z,17.60
2018-02-22T15:38:23.777Z,17.30
2018-02-22T15:40:51.483Z,24.57
2018-02-22T15:43:19.385Z,15.70
2018-02-22T15:45:47.046Z,16.12
2018-02-22T15:48:14.794Z,16.77
2018-02-22T15:50:42.456Z,19.83
2018-02-22T15:53:10.149Z,19.20
2018-02-22T15:55:37.824Z,18.53
2018-02-22T15:58:05.521Z,16.30
2018-02-22T16:00:33.521Z,19.57
2018-02-22T16:03:01.173Z,15.88
2018-02-22T16:05:28.852Z,15.75
2018-02-22T16:07:56.792Z,16.97
2018-02-22T16:10:24.512Z,18.20
2018-02-22T16:13:09.130Z,16.37
2018-02-22T16:15:36.841Z,20.40
2018-02-22T16:18:04.528Z,16.53
2018-02-22T16:20:32.233Z,14.85
2018-02-22T16:22:59.894Z,19.30
2018-02-22T16:25:27.613Z,20.85
2018-02-22T16:27:55.324Z,19.95
2018-02-22T16:30:23.004Z,16.33
2018-02-22T16:32:50.751Z,19.80
2018-02-22T16:35:18.407Z,20.70
2018-02-22T16:37:46.126Z,18.03
2018-02-22T16:40:13.800Z,18.45
2018-02-22T16:42:41.490Z,21.13
2018-02-22T16:45:09.229Z,18.00
2018-02-22T16:47:36.908Z,19.23
2018-02-22T16:50:04.609Z,14.47
2018-02-22T16:52:32.649Z,18.23
2018-02-22T16:55:00.324Z,18.17
2018-02-22T16:57:27.989Z,19.67
2018-02-22T16:59:55.660Z,19.42
2018-02-22T17:02:23.341Z,23.98
2018-02-22T17:04:50.968Z,17.73
2018-02-22T17:07:18.863Z,20.92
2018-02-22T17:09:46.491Z,19.00
2018-02-22T17:12:14.127Z,21.25
2018-02-22T17:14:41.782Z,21.75
2018-02-22T17:17:09.416Z,14.75
2018-02-22T17:19:37.100Z,20.42
2018-02-22T17:22:04.788Z,17.55
2018-02-22T17:24:32.492Z,17.17
2018-02-22T17:27:05.712Z,19.17
2018-02-22T17:29:38.818Z,16.42
2018-02-22T17:32:12.131Z,20.73
2018-02-22T17:34:39.823Z,24.12
2018-02-22T17:37:07.958Z,22.35
2018-02-22T17:42:38.628Z,22.85
2018-02-22T17:45:06.592Z,27.33
2018-02-22T17:47:34.288Z,27.40
2018-02-22T17:50:02.080Z,23.90
2018-02-22T17:52:29.752Z,19.60
2018-02-22T17:54:57.448Z,19.98
2018-02-22T17:57:25.234Z,18.45
2018-02-22T17:59:52.944Z,20.67
2018-02-22T18:02:20.608Z,23.12
2018-02-22T18:04:48.614Z,23.60
2018-02-22T18:07:16.331Z,25.75
2018-02-22T18:09:44.025Z,23.17
2018-02-22T18:12:11.743Z,24.83
2018-02-22T18:14:39.706Z,26.15
2018-02-22T18:17:08.004Z,17.35
2018-02-22T18:19:36.456Z,21.80
2018-02-22T18:22:04.428Z,25.37
2018-02-22T18:24:32.166Z,22.30
2018-02-22T18:26:59.870Z,23.83
2018-02-22T18:29:29.740Z,23.25
2018-02-22T18:31:57.936Z,18.60
2018-02-22T18:34:25.891Z,22.17
2018-02-22T18:36:53.592Z,22.13
2018-02-22T18:39:26.951Z,21.25
2018-02-22T18:41:54.707Z,25.27
2018-02-22T18:44:28.003Z,22.87
2018-02-22T18:46:55.862Z,21.55
2018-02-22T18:49:23.543Z,24.63
2018-02-22T18:51:51.407Z,21.80
2018-02-22T18:54:19.087Z,25.30
2018-02-22T18:56:47.045Z,22.35
2018-02-22T18:59:14.790Z,22.60
2018-02-22T19:01:42.882Z,28.50
2018-02-22T19:04:10.492Z,24.05
2018-02-22T19:06:38.209Z,25.90
2018-02-22T19:09:06.016Z,24.45
2018-02-22T19:11:33.693Z,23.38
2018-02-22T19:14:01.331Z,24.25
2018-02-22T19:16:28.975Z,27.00
2018-02-22T19:18:56.921Z,28.48
2018-02-22T19:21:24.548Z,32.10
2018-02-22T19:23:52.226Z,25.55
2018-02-22T19:26:20.204Z,28.95
2018-02-22T19:28:48.118Z,34.25
2018-02-22T19:31:15.842Z,28.25
2018-02-22T19:33:43.607Z,31.35
2018-02-22T19:36:11.451Z,30.90
2018-02-22T19:38:39.068Z,29.98
2018-02-22T19:41:06.915Z,35.00
2018-02-22T19:43:34.791Z,37.78
2018-02-22T19:46:02.580Z,34.05
2018-02-22T19:48:30.310Z,30.05
2018-02-22T19:50:58.025Z,32.75
2018-02-22T19:53:25.741Z,36.75
2018-02-22T19:55:53.366Z,32.85
2018-02-22T19:58:21.178Z,42.17
2018-02-22T20:00:48.981Z,33.10
2018-02-22T20:03:16.591Z,35.72
2018-02-22T20:05:44.427Z,36.83
2018-02-22T20:08:12.155Z,38.22
2018-02-22T20:10:39.826Z,39.28
2018-02-22T20:13:07.467Z,46.92
2018-02-22T20:15:35.474Z,41.10
2018-02-22T20:18:03.165Z,40.92
2018-02-22T20:20:30.824Z,36.95
2018-02-22T20:22:58.624Z,41.80
2018-02-22T20:25:26.659Z,42.88
2018-02-22T20:27:54.411Z,44.65
2018-02-22T20:30:22.041Z,47.55
2018-02-22T20:32:49.653Z,44.20
2018-02-22T20:35:17.322Z,38.92
2018-02-22T20:37:45.034Z,36.03
2018-02-22T20:40:12.729Z,45.95
2018-02-22T20:42:40.400Z,46.37
2018-02-22T20:45:08.082Z,40.10
2018-02-22T20:47:35.794Z,39.30
2018-02-22T20:50:03.996Z,44.40
2018-02-22T20:52:37.177Z,46.37
2018-02-22T20:58:07.328Z,48.65
2018-02-22T21:00:35.062Z,42.65
2018-02-22T21:03:03.063Z,43.50
2018-02-22T21:05:30.758Z,41.20
2018-02-22T21:07:58.399Z,47.25
2018-02-22T21:10:26.135Z,45.80
2018-02-22T21:12:53.769Z,43.72
2018-02-22T21:15:21.374Z,47.80
2018-02-22T21:17:49.237Z,49.65
2018-02-22T21:20:16.851Z,47.70
2018-02-22T21:22:44.878Z,43.78
2018-02-22T21:25:12.522Z,46.03
2018-02-22T21:27:40.165Z,53.35
2018-02-22T21:30:07.830Z,51.08
2018-02-22T21:32:35.497Z,62.67
2018-02-22T21:35:03.137Z,53.28
2018-02-22T21:37:30.831Z,46.63
2018-02-22T21:39:58.504Z,47.15
2018-02-22T21:42:26.167Z,55.10
2018-02-22T21:44:54.037Z,50.60
2018-02-22T21:47:21.678Z,52.53
2018-02-22T21:49:49.487Z,53.72
2018-02-22T21:52:17.155Z,51.10
2018-02-22T21:54:44.837Z,47.70
2018-02-22T21:57:12.768Z,47.55
2018-02-22T21:59:40.363Z,56.13
2018-02-22T22:02:07.983Z,44.95
2018-02-22T22:04:36.356Z,48.08
2018-02-22T22:07:04.713Z,53.90
2018-02-22T22:09:32.792Z,50.08
2018-02-22T22:12:00.853Z,51.80
2018-02-22T22:14:28.969Z,46.97
2018-02-22T22:16:57.139Z,50.33
2018-02-22T22:19:25.256Z,50.35
2018-02-22T22:21:53.127Z,62.78
2018-02-22T22:24:20.848Z,51.37
2018-02-22T22:26:48.913Z,50.45
2018-02-22T22:29:16.610Z,56.33
2018-02-22T22:31:44.317Z,50.60
2018-02-22T22:34:11.959Z,56.63
2018-02-22T22:36:49.762Z,61.88
2018-02-22T22:39:19.104Z,48.97
2018-02-22T22:41:55.511Z,55.45
2018-02-22T22:44:23.227Z,56.55
2018-02-22T22:46:50.872Z,56.28
2018-02-22T22:49:18.505Z,61.70
2018-02-22T22:51:46.073Z,53.25
2018-02-22T22:54:13.686Z,58.28
2018-02-22T22:56:41.362Z,62.50
2018-02-22T22:59:09.004Z,58.05
2018-02-22T23:01:36.605Z,53.55
2018-02-22T23:04:04.242Z,59.63
2018-02-22T23:06:31.964Z,57.28
2018-02-22T23:08:59.732Z,61.15
2018-02-22T23:11:27.308Z,63.28
2018-02-22T23:13:54.984Z,64.28
2018-02-22T23:16:22.602Z,62.05
2018-02-22T23:18:50.273Z,69.82
2018-02-22T23:21:17.865Z,72.78
2018-02-22T23:23:45.456Z,58.35
2018-02-22T23:26:13.104Z,55.95
2018-02-22T23:28:40.721Z,56.63
2018-02-22T23:31:08.368Z,64.07
2018-02-22T23:33:36.006Z,68.43
2018-02-22T23:36:03.631Z,60.85
2018-02-22T23:38:31.238Z,70.03
2018-02-22T23:41:02.075Z,55.45
2018-02-22T23:43:29.992Z,65.87
2018-02-22T23:45:57.614Z,61.85
2018-02-22T23:48:25.323Z,70.40
2018-02-22T23:50:52.898Z,59.83
2018-02-22T23:53:20.712Z,65.57
2018-02-22T23:55:48.711Z,60.75
2018-02-22T23:58:16.358Z,63.75
